createdAt,value
2018-03-07T00:00:56.559Z,99202.84
2018-03-07T00:03:24.061Z,99208.16
2018-03-07T00:05:51.609Z,99212.16
2018-03-07T00:08:19.116Z,99215.80
2018-03-07T00:10:46.595Z,99226.31
2018-03-07T00:13:14.096Z,99222.98
2018-03-07T00:15:41.600Z,99227.02
2018-03-07T00:18:09.112Z,99218.59
2018-03-07T00:20:36.600Z,99220.91
2018-03-07T00:23:04.079Z,99229.64
2018-03-07T00:25:31.572Z,99235.38
2018-03-07T00:27:59.081Z,99232.92
2018-03-07T00:30:26.573Z,99230.86
2018-03-07T00:32:54.080Z,99232.72
2018-03-07T00:35:21.584Z,99231.16
2018-03-07T00:37:49.083Z,99234.34
2018-03-07T00:40:16.614Z,99236.63
2018-03-07T00:42:46.430Z,99241.10
2018-03-07T00:45:13.924Z,99235.67
2018-03-07T00:47:41.413Z,99235.86
2018-03-07T00:50:08.907Z,99238.53
2018-03-07T00:52:36.410Z,99241.20
2018-03-07T00:55:03.991Z,99234.90
2018-03-07T00:57:31.465Z,99237.66
2018-03-07T00:59:58.975Z,99248.72
2018-03-07T01:02:26.539Z,99252.80
2018-03-07T01:04:54.040Z,99250.73
2018-03-07T01:07:21.523Z,99251.59
2018-03-07T01:09:49.007Z,99255.08
2018-03-07T01:12:16.525Z,99262.03
2018-03-07T01:14:44.012Z,99254.00
2018-03-07T01:17:11.542Z,99257.02
2018-03-07T01:19:39.036Z,99262.63
2018-03-07T01:22:06.504Z,99266.16
2018-03-07T01:24:33.991Z,99264.48
2018-03-07T01:27:01.505Z,99259.41
2018-03-07T01:29:29.016Z,99268.05
2018-03-07T01:31:56.495Z,99266.00
2018-03-07T01:34:23.976Z,99268.16
2018-03-07T01:36:51.481Z,99263.34
2018-03-07T01:39:18.987Z,99268.83
2018-03-07T01:41:46.485Z,99273.59
2018-03-07T01:44:13.983Z,99275.84
2018-03-07T01:46:41.497Z,99274.94
2018-03-07T01:49:08.980Z,99275.78
2018-03-07T01:51:48.216Z,99281.69
2018-03-07T01:54:15.733Z,99279.84
2018-03-07T01:56:43.233Z,99279.84
2018-03-07T01:59:10.702Z,99280.56
2018-03-07T02:01:38.203Z,99287.31
2018-03-07T02:04:05.687Z,99288.91
2018-03-07T02:06:33.209Z,99291.31
2018-03-07T02:09:00.685Z,99284.30
2018-03-07T02:11:28.176Z,99292.75
2018-03-07T02:13:55.656Z,99285.44
2018-03-07T02:16:23.135Z,99290.14
2018-03-07T02:18:50.633Z,99292.25
2018-03-07T02:21:18.126Z,99288.77
2018-03-07T02:23:45.614Z,99287.39
2018-03-07T02:26:13.123Z,99284.42
2018-03-07T02:28:40.626Z,99287.81
2018-03-07T02:31:08.105Z,99290.75
2018-03-07T02:33:35.588Z,99291.11
2018-03-07T02:36:03.134Z,99299.69
2018-03-07T02:38:30.609Z,99297.86
2018-03-07T02:40:58.131Z,99290.48
2018-03-07T02:43:25.693Z,99299.81
2018-03-07T02:45:53.191Z,99296.30
2018-03-07T02:48:20.753Z,99291.14
2018-03-07T02:50:48.248Z,99296.81
2018-03-07T02:53:15.725Z,99299.00
2018-03-07T02:55:43.225Z,99299.87
2018-03-07T02:58:10.708Z,99291.32
2018-03-07T03:00:38.219Z,99295.34
2018-03-07T03:03:05.724Z,99302.72
2018-03-07T03:05:33.250Z,99296.75
2018-03-07T03:08:00.758Z,99293.75
2018-03-07T03:10:28.264Z,99301.07
2018-03-07T03:12:55.905Z,99298.52
2018-03-07T03:15:23.396Z,99307.22
2018-03-07T03:17:50.868Z,99308.20
2018-03-07T03:20:18.380Z,99311.97
2018-03-07T03:22:45.964Z,99309.17
2018-03-07T03:25:13.489Z,99317.48
2018-03-07T03:27:40.975Z,99315.94
2018-03-07T03:30:08.499Z,99315.72
2018-03-07T03:32:36.008Z,99326.18
2018-03-07T03:35:03.536Z,99326.23
2018-03-07T03:37:31.053Z,99321.08
2018-03-07T03:39:58.577Z,99320.32
2018-03-07T03:42:26.055Z,99324.30
2018-03-07T03:44:53.790Z,99333.44
2018-03-07T03:47:21.283Z,99338.23
2018-03-07T03:49:48.803Z,99339.58
2018-03-07T03:52:16.352Z,99340.03
2018-03-07T03:54:43.867Z,99349.10
2018-03-07T03:57:11.375Z,99346.52
2018-03-07T03:59:38.946Z,99350.78
2018-03-07T04:02:06.431Z,99348.23
2018-03-07T04:04:34.847Z,99345.74
2018-03-07T04:07:02.332Z,99345.86
2018-03-07T04:09:29.824Z,99349.33
2018-03-07T04:11:57.334Z,99348.13
2018-03-07T04:14:24.825Z,99354.65
2018-03-07T04:16:52.303Z,99359.47
2018-03-07T04:19:19.775Z,99361.27
2018-03-07T04:21:47.274Z,99357.88
2018-03-07T04:24:14.756Z,99363.92
2018-03-07T04:26:42.247Z,99362.27
2018-03-07T04:29:09.755Z,99366.55
2018-03-07T04:31:37.235Z,99365.73
2018-03-07T04:34:04.731Z,99366.27
2018-03-07T04:36:32.224Z,99366.27
2018-03-07T04:38:59.692Z,99369.73
2018-03-07T04:41:27.174Z,99360.78
2018-03-07T04:43:54.657Z,99368.95
2018-03-07T04:46:22.109Z,99370.61
2018-03-07T04:48:49.651Z,99368.84
2018-03-07T04:51:17.127Z,99373.02
2018-03-07T04:53:44.612Z,99379.80
2018-03-07T04:56:12.084Z,99375.58
2018-03-07T04:58:39.558Z,99378.06
2018-03-07T05:01:07.044Z,99381.83
2018-03-07T05:03:34.517Z,99385.19
2018-03-07T05:08:24.083Z,99390.18
2018-03-07T05:10:51.588Z,99397.05
2018-03-07T05:13:19.076Z,99395.73
2018-03-07T05:15:46.580Z,99397.41
2018-03-07T05:18:14.077Z,99405.09
2018-03-07T05:20:41.616Z,99413.19
2018-03-07T05:23:09.175Z,99415.23
2018-03-07T05:25:36.676Z,99421.27
2018-03-07T05:28:04.200Z,99416.08
2018-03-07T05:30:31.684Z,99418.52
2018-03-07T05:32:59.191Z,99424.04
2018-03-07T05:35:26.695Z,99420.98
2018-03-07T05:37:54.203Z,99423.96
2018-03-07T05:40:21.708Z,99428.30
2018-03-07T05:42:49.207Z,99438.70
2018-03-07T05:45:16.707Z,99437.44
2018-03-07T05:47:44.211Z,99442.17
2018-03-07T05:50:11.716Z,99448.17
2018-03-07T05:52:39.208Z,99448.53
2018-03-07T05:55:06.691Z,99454.11
2018-03-07T05:57:34.204Z,99454.92
2018-03-07T06:00:01.693Z,99457.95
2018-03-07T06:02:29.199Z,99461.92
2018-03-07T06:04:56.712Z,99462.34
2018-03-07T06:07:24.247Z,99471.31
2018-03-07T06:09:51.869Z,99472.66
2018-03-07T06:12:19.367Z,99483.39
2018-03-07T06:14:46.893Z,99486.47
2018-03-07T06:17:14.387Z,99489.11
2018-03-07T06:19:41.882Z,99490.81
2018-03-07T06:22:09.359Z,99489.21
2018-03-07T06:24:36.854Z,99491.50
2018-03-07T06:27:04.334Z,99495.97
2018-03-07T06:29:31.778Z,99499.61
2018-03-07T06:31:59.291Z,99492.47
2018-03-07T06:34:26.803Z,99502.57
2018-03-07T06:36:54.287Z,99510.48
2018-03-07T06:39:21.773Z,99510.64
2018-03-07T06:41:49.260Z,99515.50
2018-03-07T06:44:16.906Z,99515.28
2018-03-07T06:46:44.389Z,99518.43
2018-03-07T06:49:11.883Z,99523.77
2018-03-07T06:51:39.392Z,99527.70
2018-03-07T06:54:06.862Z,99525.77
2018-03-07T06:56:34.348Z,99529.73
2018-03-07T06:59:01.853Z,99531.52
2018-03-07T07:01:29.352Z,99540.66
2018-03-07T07:03:56.827Z,99539.86
2018-03-07T07:06:24.325Z,99536.64
2018-03-07T07:08:51.828Z,99536.27
2018-03-07T07:11:19.385Z,99542.39
2018-03-07T07:13:49.257Z,99544.61
2018-03-07T07:16:16.746Z,99547.69
2018-03-07T07:18:44.251Z,99553.70
2018-03-07T07:21:11.746Z,99549.05
2018-03-07T07:23:39.248Z,99551.15
2018-03-07T07:26:06.762Z,99554.64
2018-03-07T07:28:34.244Z,99557.16
2018-03-07T07:31:01.720Z,99567.42
2018-03-07T07:33:29.213Z,99569.97
2018-03-07T07:35:56.706Z,99569.50
2018-03-07T07:38:24.243Z,99579.33
2018-03-07T07:40:51.814Z,99588.32
2018-03-07T07:43:19.397Z,99593.42
2018-03-07T07:45:46.857Z,99595.53
2018-03-07T07:48:14.340Z,99598.50
2018-03-07T07:50:41.854Z,99595.78
2018-03-07T07:53:09.372Z,99598.28
2018-03-07T07:55:36.940Z,99603.78
2018-03-07T07:58:04.423Z,99604.11
2018-03-07T08:00:31.909Z,99601.44
2018-03-07T08:02:59.454Z,99596.61
2018-03-07T08:05:26.955Z,99608.91
2018-03-07T08:10:28.480Z,99602.02
2018-03-07T08:12:55.960Z,99605.66
2018-03-07T08:15:23.439Z,99602.04
2018-03-07T08:17:50.915Z,99605.66
2018-03-07T08:20:18.483Z,99611.77
2018-03-07T08:22:45.956Z,99612.29
2018-03-07T08:25:13.457Z,99608.02
2018-03-07T08:27:40.983Z,99613.08
2018-03-07T08:30:08.459Z,99608.30
2018-03-07T08:32:35.948Z,99611.30
2018-03-07T08:35:03.532Z,99617.75
2018-03-07T08:37:31.038Z,99613.84
2018-03-07T08:39:58.547Z,99622.42
2018-03-07T08:42:26.904Z,99626.31
2018-03-07T08:44:54.557Z,99628.94
2018-03-07T08:47:22.099Z,99632.95
2018-03-07T08:49:49.594Z,99643.52
2018-03-07T08:52:17.080Z,99636.89
2018-03-07T08:54:44.600Z,99641.34
2018-03-07T08:57:12.102Z,99644.65
2018-03-07T08:59:39.600Z,99663.44
2018-03-07T09:02:07.074Z,99662.53
2018-03-07T09:04:34.645Z,99658.09
2018-03-07T09:07:02.244Z,99652.65
2018-03-07T09:09:29.813Z,99657.09
2018-03-07T09:11:57.419Z,99652.91
2018-03-07T09:14:24.913Z,99655.91
2018-03-07T09:16:52.395Z,99651.52
2018-03-07T09:19:19.888Z,99660.42
2018-03-07T09:21:47.361Z,99658.84
2018-03-07T09:24:14.864Z,99663.56
2018-03-07T09:26:42.360Z,99667.16
2018-03-07T09:29:09.850Z,99668.95
2018-03-07T09:31:37.335Z,99674.86
2018-03-07T09:34:04.864Z,99683.50
2018-03-07T09:36:32.353Z,99678.90
2018-03-07T09:38:59.868Z,99678.90
2018-03-07T09:41:27.376Z,99682.81
2018-03-07T09:43:54.853Z,99675.56
2018-03-07T09:46:22.327Z,99681.19
2018-03-07T09:48:49.847Z,99683.56
2018-03-07T09:51:17.325Z,99675.95
2018-03-07T09:53:44.839Z,99673.09
2018-03-07T09:56:13.490Z,99672.59
2018-03-07T09:58:40.940Z,99677.08
2018-03-07T10:01:08.473Z,99671.63
2018-03-07T10:03:35.998Z,99683.90
2018-03-07T10:06:03.491Z,99677.63
2018-03-07T10:08:31.035Z,99677.88
2018-03-07T10:10:58.620Z,99676.64
2018-03-07T10:13:26.115Z,99686.86
2018-03-07T10:15:53.987Z,99682.80
2018-03-07T10:18:21.611Z,99684.46
2018-03-07T10:20:49.141Z,99684.17
2018-03-07T10:23:16.646Z,99685.27
2018-03-07T10:25:44.179Z,99686.98
2018-03-07T10:28:11.690Z,99683.64
2018-03-07T10:30:39.200Z,99691.41
2018-03-07T10:33:12.268Z,99695.23
2018-03-07T10:35:39.913Z,99708.75
2018-03-07T10:38:07.445Z,99712.91
2018-03-07T10:40:35.030Z,99717.16
2018-03-07T10:43:02.589Z,99715.92
2018-03-07T10:45:30.173Z,99709.54
2018-03-07T10:47:57.694Z,99709.05
2018-03-07T10:50:25.546Z,99706.14
2018-03-07T10:52:53.079Z,99705.30
2018-03-07T10:55:20.604Z,99705.03
2018-03-07T10:57:48.208Z,99709.22
2018-03-07T11:00:21.367Z,99715.47
2018-03-07T11:02:48.864Z,99725.55
2018-03-07T11:05:17.041Z,99714.34
2018-03-07T11:07:44.539Z,99717.35
2018-03-07T11:10:12.099Z,99729.73
2018-03-07T11:12:39.604Z,99721.63
2018-03-07T11:15:07.239Z,99727.14
2018-03-07T11:17:34.748Z,99729.17
2018-03-07T11:20:02.249Z,99726.42
2018-03-07T11:22:29.834Z,99735.30
2018-03-07T11:24:57.360Z,99733.13
2018-03-07T11:27:24.934Z,99741.20
2018-03-07T11:29:52.423Z,99747.33
2018-03-07T11:32:19.984Z,99741.62
2018-03-07T11:34:47.544Z,99746.35
2018-03-07T11:37:15.039Z,99741.09
2018-03-07T11:39:42.597Z,99743.75
2018-03-07T11:42:10.185Z,99746.78
2018-03-07T11:44:37.713Z,99751.17
2018-03-07T11:47:05.252Z,99747.36
2018-03-07T11:49:32.817Z,99747.58
2018-03-07T11:52:00.328Z,99753.98
2018-03-07T11:54:27.884Z,99746.17
2018-03-07T11:56:55.404Z,99745.41
2018-03-07T11:59:23.801Z,99741.70
2018-03-07T12:01:51.308Z,99744.68
2018-03-07T12:04:18.927Z,99742.78
2018-03-07T12:06:46.512Z,99741.24
2018-03-07T12:09:14.041Z,99745.31
2018-03-07T12:11:41.529Z,99746.27
2018-03-07T12:14:09.024Z,99743.14
2018-03-07T12:16:38.636Z,99752.05
2018-03-07T12:19:06.326Z,99752.17
2018-03-07T12:21:33.903Z,99762.86
2018-03-07T12:24:01.416Z,99755.30
2018-03-07T12:26:28.943Z,99753.81
2018-03-07T12:28:56.471Z,99760.31
2018-03-07T12:31:23.985Z,99757.25
2018-03-07T12:33:51.493Z,99748.05
2018-03-07T12:36:18.976Z,99746.50
2018-03-07T12:38:46.624Z,99753.86
2018-03-07T12:41:14.127Z,99756.16
2018-03-07T12:43:41.630Z,99752.98
2018-03-07T12:46:09.166Z,99767.30
2018-03-07T12:48:36.756Z,99762.13
2018-03-07T12:51:04.428Z,99762.59
2018-03-07T12:53:32.854Z,99764.16
2018-03-07T12:56:00.834Z,99770.32
2018-03-07T12:58:28.384Z,99762.13
2018-03-07T13:00:56.036Z,99764.97
2018-03-07T13:03:26.071Z,99756.50
2018-03-07T13:05:53.606Z,99764.06
2018-03-07T13:08:21.116Z,99761.98
2018-03-07T13:10:48.626Z,99776.03
2018-03-07T13:13:16.131Z,99793.77
2018-03-07T13:15:43.817Z,99775.48
2018-03-07T13:18:11.368Z,99778.98
2018-03-07T13:20:39.013Z,99781.92
2018-03-07T13:23:06.525Z,99777.58
2018-03-07T13:25:34.086Z,99792.07
2018-03-07T13:28:01.637Z,99770.05
2018-03-07T13:30:29.136Z,99769.67
2018-03-07T13:32:56.729Z,99770.17
2018-03-07T13:35:24.477Z,99773.21
2018-03-07T13:37:52.051Z,99772.53
2018-03-07T13:40:19.577Z,99763.02
2018-03-07T13:42:47.072Z,99766.59
2018-03-07T13:45:14.668Z,99765.81
2018-03-07T13:47:42.220Z,99763.48
2018-03-07T13:50:09.717Z,99765.32
2018-03-07T13:52:37.206Z,99768.48
2018-03-07T13:55:04.735Z,99776.10
2018-03-07T13:57:32.260Z,99781.06
2018-03-07T13:59:59.780Z,99770.65
2018-03-07T14:02:27.294Z,99783.00
2018-03-07T14:04:54.807Z,99781.42
2018-03-07T14:07:23.239Z,99770.34
2018-03-07T14:10:10.925Z,99773.57
2018-03-07T14:12:38.454Z,99768.30
2018-03-07T14:15:06.024Z,99767.83
2018-03-07T14:17:33.726Z,99765.27
2018-03-07T14:20:01.250Z,99767.61
2018-03-07T14:22:28.895Z,99757.31
2018-03-07T14:24:56.388Z,99759.34
2018-03-07T14:27:23.920Z,99764.19
2018-03-07T14:29:51.449Z,99766.13
2018-03-07T14:32:18.947Z,99761.88
2018-03-07T14:34:46.488Z,99771.32
2018-03-07T14:37:14.047Z,99772.14
2018-03-07T14:39:41.556Z,99761.73
2018-03-07T14:42:09.135Z,99761.08
2018-03-07T14:44:36.658Z,99767.53
2018-03-07T14:47:04.208Z,99760.52
2018-03-07T14:49:32.780Z,99765.05
2018-03-07T14:52:00.296Z,99762.20
2018-03-07T14:54:27.788Z,99766.52
2018-03-07T14:56:55.287Z,99764.80
2018-03-07T14:59:23.036Z,99769.67
2018-03-07T15:01:50.585Z,99762.13
2018-03-07T15:04:18.170Z,99774.08
2018-03-07T15:06:45.746Z,99765.27
2018-03-07T15:09:13.263Z,99770.08
2018-03-07T15:11:40.836Z,99767.19
2018-03-07T15:14:08.383Z,99780.13
2018-03-07T15:16:35.884Z,99760.06
2018-03-07T15:19:03.452Z,99760.52
2018-03-07T15:21:30.997Z,99759.03
2018-03-07T15:23:58.524Z,99762.36
2018-03-07T15:26:26.046Z,99755.97
2018-03-07T15:28:53.689Z,99760.64
2018-03-07T15:31:21.268Z,99746.27
2018-03-07T15:33:48.837Z,99747.41
2018-03-07T15:36:16.387Z,99744.13
2018-03-07T15:38:43.887Z,99743.49
2018-03-07T15:41:11.428Z,99738.54
2018-03-07T15:43:38.993Z,99740.61
2018-03-07T15:46:06.478Z,99743.66
2018-03-07T15:48:34.034Z,99746.78
2018-03-07T15:51:01.612Z,99750.50
2018-03-07T15:53:29.119Z,99750.59
2018-03-07T15:55:56.680Z,99747.95
2018-03-07T15:58:24.280Z,99743.53
2018-03-07T16:00:51.786Z,99738.44
2018-03-07T16:03:19.291Z,99741.79
2018-03-07T16:05:46.863Z,99740.84
2018-03-07T16:08:14.365Z,99737.60
2018-03-07T16:10:41.929Z,99732.04
2018-03-07T16:13:09.422Z,99734.80
2018-03-07T16:15:36.912Z,99730.64
2018-03-07T16:18:04.471Z,99732.36
2018-03-07T16:20:32.051Z,99732.17
2018-03-07T16:22:59.849Z,99731.73
2018-03-07T16:25:27.377Z,99729.22
2018-03-07T16:27:54.908Z,99723.00
2018-03-07T16:30:22.420Z,99722.47
2018-03-07T16:32:49.992Z,99721.83
2018-03-07T16:35:17.516Z,99719.77
2018-03-07T16:37:45.027Z,99720.92
2018-03-07T16:40:14.182Z,99718.00
2018-03-07T16:42:41.681Z,99713.81
2018-03-07T16:45:09.295Z,99710.30
2018-03-07T16:47:36.783Z,99710.26
2018-03-07T16:50:04.295Z,99706.30
2018-03-07T16:52:31.840Z,99712.37
2018-03-07T16:54:59.416Z,99711.38
2018-03-07T16:57:26.899Z,99713.20
2018-03-07T16:59:54.400Z,99710.30
2018-03-07T17:02:21.898Z,99719.35
2018-03-07T17:04:49.454Z,99723.55
2018-03-07T17:07:16.967Z,99722.20
2018-03-07T17:09:44.560Z,99731.27
2018-03-07T17:12:12.156Z,99721.26
2018-03-07T17:14:39.681Z,99728.25
2018-03-07T17:17:07.192Z,99726.72
2018-03-07T17:19:34.724Z,99721.92
2018-03-07T17:22:02.246Z,99728.42
2018-03-07T17:24:29.740Z,99726.08
2018-03-07T17:26:57.324Z,99732.86
2018-03-07T17:29:24.905Z,99732.55
2018-03-07T17:31:52.438Z,99734.88
2018-03-07T17:34:21.078Z,99734.69
2018-03-07T17:36:48.653Z,99731.27
2018-03-07T17:39:16.203Z,99738.85
2018-03-07T17:41:43.704Z,99738.30
2018-03-07T17:44:11.974Z,99731.34
2018-03-07T17:46:39.489Z,99734.26
2018-03-07T17:49:07.015Z,99729.80
2018-03-07T17:51:34.562Z,99737.06
2018-03-07T17:54:02.106Z,99743.45
2018-03-07T17:56:29.679Z,99730.52
2018-03-07T17:58:57.170Z,99734.79
2018-03-07T18:01:24.659Z,99735.94
2018-03-07T18:03:52.161Z,99724.53
2018-03-07T18:06:19.673Z,99721.20
2018-03-07T18:08:47.179Z,99716.20
2018-03-07T18:11:14.667Z,99717.39
2018-03-07T18:13:42.175Z,99714.09
2018-03-07T18:16:09.655Z,99706.86
2018-03-07T18:18:37.156Z,99716.04
2018-03-07T18:21:04.681Z,99716.11
2018-03-07T18:23:32.174Z,99717.05
2018-03-07T18:25:59.664Z,99720.13
2018-03-07T18:28:27.166Z,99721.56
2018-03-07T18:30:54.679Z,99723.87
2018-03-07T18:33:22.175Z,99722.25
2018-03-07T18:35:49.668Z,99724.00
2018-03-07T18:38:17.162Z,99723.00
2018-03-07T18:40:44.643Z,99721.20
2018-03-07T18:43:12.136Z,99714.17
2018-03-07T18:45:39.622Z,99714.84
2018-03-07T18:48:07.108Z,99700.04
2018-03-07T18:50:34.706Z,99701.66
2018-03-07T18:53:02.228Z,99707.82
2018-03-07T18:55:29.723Z,99703.13
2018-03-07T18:57:57.191Z,99702.67
2018-03-07T19:00:24.703Z,99704.42
2018-03-07T19:02:52.187Z,99702.70
2018-03-07T19:05:19.663Z,99701.83
2018-03-07T19:07:47.140Z,99696.64
2018-03-07T19:10:14.619Z,99698.00
2018-03-07T19:12:42.118Z,99693.28
2018-03-07T19:15:09.593Z,99687.28
2018-03-07T19:17:37.138Z,99688.25
2018-03-07T19:20:04.616Z,99689.16
2018-03-07T19:22:32.111Z,99687.90
2018-03-07T19:24:59.607Z,99682.81
2018-03-07T19:27:27.087Z,99679.02
2018-03-07T19:29:55.087Z,99676.08
2018-03-07T19:32:22.591Z,99674.03
2018-03-07T19:34:50.071Z,99667.33
2018-03-07T19:37:17.583Z,99668.27
2018-03-07T19:39:45.073Z,99671.86
2018-03-07T19:42:12.543Z,99671.86
2018-03-07T19:44:40.052Z,99671.47
2018-03-07T19:47:07.555Z,99665.58
2018-03-07T19:49:35.048Z,99670.44
2018-03-07T19:52:02.540Z,99671.47
2018-03-07T19:54:30.027Z,99668.98
2018-03-07T19:56:57.546Z,99663.44
2018-03-07T19:59:25.215Z,99666.48
2018-03-07T20:01:52.706Z,99664.02
2018-03-07T20:04:20.223Z,99655.89
2018-03-07T20:06:47.761Z,99654.23
2018-03-07T20:09:15.250Z,99652.62
2018-03-07T20:11:42.758Z,99653.08
2018-03-07T20:14:10.263Z,99647.15
2018-03-07T20:16:37.891Z,99646.34
2018-03-07T20:19:05.363Z,99638.23
2018-03-07T20:21:32.846Z,99646.14
2018-03-07T20:24:00.396Z,99644.48
2018-03-07T20:26:27.893Z,99640.70
2018-03-07T20:28:55.379Z,99642.13
2018-03-07T20:31:22.856Z,99638.30
2018-03-07T20:33:50.328Z,99632.83
2018-03-07T20:36:17.811Z,99636.42
2018-03-07T20:38:45.351Z,99639.23
2018-03-07T20:41:12.830Z,99635.92
2018-03-07T20:43:40.299Z,99636.44
2018-03-07T20:46:07.787Z,99644.27
2018-03-07T20:48:35.299Z,99648.16
2018-03-07T20:51:02.787Z,99646.38
2018-03-07T20:53:30.302Z,99649.77
2018-03-07T20:55:57.788Z,99648.00
2018-03-07T20:58:25.263Z,99628.09
2018-03-07T21:00:52.762Z,99627.22
2018-03-07T21:03:20.259Z,99635.83
2018-03-07T21:05:47.803Z,99632.36
2018-03-07T21:08:15.315Z,99624.14
2018-03-07T21:10:42.783Z,99615.05
2018-03-07T21:13:10.291Z,99607.64
2018-03-07T21:15:37.775Z,99606.80
2018-03-07T21:18:05.248Z,99599.00
2018-03-07T21:20:32.753Z,99594.23
2018-03-07T21:23:00.324Z,99593.78
2018-03-07T21:25:28.072Z,99589.03
2018-03-07T21:27:55.551Z,99583.84
2018-03-07T21:30:23.049Z,99583.00
2018-03-07T21:32:50.535Z,99574.84
2018-03-07T21:35:18.023Z,99574.39
2018-03-07T21:37:45.503Z,99565.33
2018-03-07T21:40:12.986Z,99572.25
2018-03-07T21:42:40.460Z,99576.56
2018-03-07T21:45:07.964Z,99564.91
2018-03-07T21:47:35.491Z,99571.38
2018-03-07T21:50:03.062Z,99571.38
2018-03-07T21:52:30.698Z,99569.31
2018-03-07T21:54:58.266Z,99574.91
2018-03-07T21:57:25.770Z,99577.95
2018-03-07T21:59:53.245Z,99580.97
2018-03-07T22:02:20.723Z,99573.65
2018-03-07T22:04:48.194Z,99568.50
2018-03-07T22:07:15.719Z,99569.38
2018-03-07T22:09:43.207Z,99563.36
2018-03-07T22:12:10.694Z,99552.58
2018-03-07T22:14:38.216Z,99547.89
2018-03-07T22:17:05.683Z,99546.17
2018-03-07T22:19:33.171Z,99550.09
2018-03-07T22:22:00.687Z,99553.52
2018-03-07T22:24:28.183Z,99550.54
2018-03-07T22:26:55.659Z,99547.95
2018-03-07T22:29:23.130Z,99536.72
2018-03-07T22:31:50.611Z,99531.16
2018-03-07T22:34:18.091Z,99531.99
2018-03-07T22:36:45.570Z,99528.17
2018-03-07T22:39:13.060Z,99530.77
2018-03-07T22:41:40.546Z,99531.22
2018-03-07T22:44:08.017Z,99531.25
2018-03-07T22:46:35.508Z,99554.16
2018-03-07T22:49:02.987Z,99541.34
2018-03-07T22:51:30.498Z,99545.66
2018-03-07T22:53:57.987Z,99552.09
2018-03-07T22:56:25.512Z,99544.36
2018-03-07T22:58:52.996Z,99531.93
2018-03-07T23:01:20.482Z,99515.59
2018-03-07T23:03:47.969Z,99501.35
2018-03-07T23:06:15.553Z,99495.33
2018-03-07T23:08:43.035Z,99492.28
2018-03-07T23:11:10.529Z,99483.68
2018-03-07T23:13:38.015Z,99463.03
2018-03-07T23:16:05.520Z,99457.92
2018-03-07T23:18:32.991Z,99460.09
2018-03-07T23:21:00.516Z,99448.96
2018-03-07T23:23:28.015Z,99436.12
2018-03-07T23:25:55.499Z,99429.64
2018-03-07T23:28:23.003Z,99421.95
2018-03-07T23:30:50.487Z,99418.09
2018-03-07T23:33:18.000Z,99401.27
2018-03-07T23:35:45.466Z,99400.47
2018-03-07T23:38:12.932Z,99390.59
2018-03-07T23:40:40.410Z,99385.45
2018-03-07T23:43:07.934Z,99379.83
2018-03-07T23:45:35.435Z,99376.81
2018-03-07T23:48:02.906Z,99374.65
2018-03-07T23:50:30.380Z,99387.17
2018-03-07T23:52:57.864Z,99379.76
2018-03-07T23:55:25.334Z,99391.83
2018-03-07T23:57:52.827Z,99389.72
